Orel 3 — UYBY — position and weather

sailwx.info

Track history (hours):
 
Tides and Currents Weather Stations Pressure Air Temp Water Temp Dewpoint Dewpoint Depression Visibility Wind Speed Wind Dir Waves Ship Positions

Orel 3

Last reported at 2017-Nov-15 07:30 UTC. Time now 2017-Nov-19 08:51 UTC.
Position N 48°04' E 035°06'.

Length 108 m; draft 3 m.

Type: Cargo ship. MMSI: 272057000.

Date/timePositionNaut miles runAvg speedWind from/ knotsBaromVisibWave heightAir tempDewpointWater temp
2017-Nov-15 07:30N 48°04' E 035°06'3 7.1
2017-Nov-15 07:00N 48°00' E 035°08'4 7.5
2017-Nov-15 06:30N 47°57' E 035°07'3 7.0
2017-Nov-15 06:00N 47°53' E 035°06'1 1.5
2017-Nov-15 05:30N 47°53' E 035°07'0 0.0
2017-Nov-15 05:00N 47°53' E 035°07'0 0.0
2017-Nov-15 04:30N 47°53' E 035°07'0 0.0
2017-Nov-15 04:00N 47°53' E 035°07'0 0.0
2017-Nov-15 03:30N 47°53' E 035°07'0 0.0
2017-Nov-15 03:00N 47°53' E 035°07'0 0.0
2017-Nov-15 02:30N 47°53' E 035°07'0 0.0
2017-Nov-15 02:00N 47°53' E 035°07'0 0.0
2017-Nov-15 01:30N 47°53' E 035°07'0 0.0
2017-Nov-15 01:00N 47°53' E 035°07'0 0.0
2017-Nov-15 00:30N 47°53' E 035°07'0 0.0
2017-Nov-15 00:00N 47°53' E 035°07'0 0.0
2017-Nov-14 23:30N 47°53' E 035°07'0 0.0
2017-Nov-14 23:00N 47°53' E 035°07'0 0.0
2017-Nov-14 22:30N 47°53' E 035°07'0 0.0
2017-Nov-14 22:00N 47°53' E 035°07'0 0.0
2017-Nov-14 21:30N 47°53' E 035°07'0 0.0
2017-Nov-14 21:00N 47°53' E 035°07'0 0.0
2017-Nov-14 20:30N 47°53' E 035°07'0 0.0
2017-Nov-14 20:00N 47°53' E 035°07'0 0.0
2017-Nov-14 19:30N 47°53' E 035°07'0 0.0
2017-Nov-14 19:00N 47°53' E 035°07'0 0.0
2017-Nov-14 18:30N 47°53' E 035°07'0 0.0
2017-Nov-14 18:00N 47°53' E 035°07'0 0.0
2017-Nov-14 17:30N 47°53' E 035°07'0 0.0
2017-Nov-14 17:00N 47°53' E 035°07'0 0.0
2017-Nov-14 16:30N 47°53' E 035°07'0 0.0
2017-Nov-14 16:00N 47°53' E 035°07'0 0.0
2017-Nov-14 15:30N 47°53' E 035°07'0 0.0
2017-Nov-14 15:00N 47°53' E 035°07'0 0.0
2017-Nov-14 14:30N 47°53' E 035°07'0 0.0
2017-Nov-14 14:00N 47°53' E 035°07'0 0.0
2017-Nov-14 13:30N 47°53' E 035°07'0 0.0
2017-Nov-14 13:00N 47°53' E 035°07'0 0.0
2017-Nov-14 12:30N 47°53' E 035°07'0 0.0
2017-Nov-14 12:00N 47°53' E 035°07'0 0.0
2017-Nov-14 11:30N 47°53' E 035°07'0 0.0
2017-Nov-14 11:00N 47°53' E 035°07'0 0.0
2017-Nov-14 10:30N 47°53' E 035°07'0 0.0
2017-Nov-14 10:00N 47°53' E 035°07'0 0.0
2017-Nov-14 09:30N 47°53' E 035°07'0 0.0
2017-Nov-14 09:00N 47°53' E 035°07'0 0.0
2017-Nov-14 08:30N 47°53' E 035°07'0 0.0
2017-Nov-14 08:00N 47°53' E 035°07'0 0.0
2017-Nov-14 07:30N 47°53' E 035°07'0 0.0
2017-Nov-14 07:00N 47°53' E 035°07'0 0.0
2017-Nov-14 06:30N 47°53' E 035°07'0 0.0
2017-Nov-14 06:00N 47°53' E 035°07'0 0.0
2017-Nov-14 05:30N 47°53' E 035°07'0 0.0
2017-Nov-14 05:00N 47°53' E 035°07'0 0.0
2017-Nov-14 04:30N 47°53' E 035°07'0 0.0
2017-Nov-14 04:00N 47°53' E 035°07'0 0.0
2017-Nov-14 03:30N 47°53' E 035°07'0 0.0
2017-Nov-14 03:00N 47°53' E 035°07'0 0.0
2017-Nov-14 02:30N 47°53' E 035°07'0 0.0
2017-Nov-14 02:00N 47°53' E 035°07'0 0.0
2017-Nov-14 01:30N 47°53' E 035°07'0 0.0
2017-Nov-14 01:00N 47°53' E 035°07'0 0.0
2017-Nov-14 00:30N 47°53' E 035°07'0 0.0
2017-Nov-14 00:00N 47°53' E 035°07'0 0.0
2017-Nov-13 23:30N 47°53' E 035°07'0 0.0
2017-Nov-13 23:00N 47°53' E 035°07'0 0.0
2017-Nov-13 22:30N 47°53' E 035°07'0 0.0
2017-Nov-13 22:00N 47°53' E 035°07'  
2017-Nov-11 16:57N 46°32' E 032°07'3 6.7
2017-Nov-11 16:30N 46°32' E 032°03'3 6.8
2017-Nov-11 16:00N 46°33' E 031°58'3 6.7
2017-Nov-11 15:30N 46°34' E 031°53'4 6.8
2017-Nov-11 14:54N 46°36' E 031°48'3 7.0
2017-Nov-11 14:29N 46°36' E 031°43'153 6.8
2017-Nov-10 16:01N 44°36' E 029°28'0 6.8
2017-Nov-10 16:00N 44°36' E 029°28'4 6.7
2017-Nov-10 15:24N 44°32' E 029°25'3 7.1
2017-Nov-10 14:59N 44°29' E 029°23'3 7.0
2017-Nov-10 14:31N 44°27' E 029°21'4 7.2
2017-Nov-10 14:00N 44°24' E 029°18'3 6.9
2017-Nov-10 13:30N 44°21' E 029°16'4 7.1
2017-Nov-10 13:00N 44°17' E 029°14'4 7.1
2017-Nov-10 12:30N 44°14' E 029°11'4 7.6
2017-Nov-10 12:00N 44°11' E 029°08'4 8.1
2017-Nov-10 11:30N 44°08' E 029°06'4 7.7
2017-Nov-10 11:00N 44°04' E 029°03'4 7.7
2017-Nov-10 10:30N 44°01' E 029°00'4 7.8
2017-Nov-10 10:00N 43°57' E 028°58'4 7.7
2017-Nov-10 09:30N 43°53' E 028°58'4 7.4
2017-Nov-10 09:00N 43°50' E 028°58'4 7.4
2017-Nov-10 08:30N 43°46' E 028°58'3 6.7
2017-Nov-10 08:00N 43°43' E 028°56'3 6.9
2017-Nov-10 07:30N 43°40' E 028°53'  
Track history (hours):
 
Tides and Currents Weather Stations Pressure Air Temp Water Temp Dewpoint Dewpoint Depression Visibility Wind Speed Wind Dir Waves Ship Positions

Orel 3

Last reported at 2017-Nov-15 07:30 UTC. Time now 2017-Nov-19 08:51 UTC.
Position N 48°04' E 035°06'.

Length 108 m; draft 3 m.

Type: Cargo ship. MMSI: 272057000.

Date/timePositionNaut miles runAvg speedWind from/ knotsBaromVisibWave heightAir tempDewpointWater temp
2017-Nov-15 07:30N 48°04' E 035°06'3 7.1
2017-Nov-15 07:00N 48°00' E 035°08'4 7.5
2017-Nov-15 06:30N 47°57' E 035°07'3 7.0
2017-Nov-15 06:00N 47°53' E 035°06'1 1.5
2017-Nov-15 05:30N 47°53' E 035°07'0 0.0
2017-Nov-15 05:00N 47°53' E 035°07'0 0.0
2017-Nov-15 04:30N 47°53' E 035°07'0 0.0
2017-Nov-15 04:00N 47°53' E 035°07'0 0.0
2017-Nov-15 03:30N 47°53' E 035°07'0 0.0
2017-Nov-15 03:00N 47°53' E 035°07'0 0.0
2017-Nov-15 02:30N 47°53' E 035°07'0 0.0
2017-Nov-15 02:00N 47°53' E 035°07'0 0.0
2017-Nov-15 01:30N 47°53' E 035°07'0 0.0
2017-Nov-15 01:00N 47°53' E 035°07'0 0.0
2017-Nov-15 00:30N 47°53' E 035°07'0 0.0
2017-Nov-15 00:00N 47°53' E 035°07'0 0.0
2017-Nov-14 23:30N 47°53' E 035°07'0 0.0
2017-Nov-14 23:00N 47°53' E 035°07'0 0.0
2017-Nov-14 22:30N 47°53' E 035°07'0 0.0
2017-Nov-14 22:00N 47°53' E 035°07'0 0.0
2017-Nov-14 21:30N 47°53' E 035°07'0 0.0
2017-Nov-14 21:00N 47°53' E 035°07'0 0.0
2017-Nov-14 20:30N 47°53' E 035°07'0 0.0
2017-Nov-14 20:00N 47°53' E 035°07'0 0.0
2017-Nov-14 19:30N 47°53' E 035°07'0 0.0
2017-Nov-14 19:00N 47°53' E 035°07'0 0.0
2017-Nov-14 18:30N 47°53' E 035°07'0 0.0
2017-Nov-14 18:00N 47°53' E 035°07'0 0.0
2017-Nov-14 17:30N 47°53' E 035°07'0 0.0
2017-Nov-14 17:00N 47°53' E 035°07'0 0.0
2017-Nov-14 16:30N 47°53' E 035°07'0 0.0
2017-Nov-14 16:00N 47°53' E 035°07'0 0.0
2017-Nov-14 15:30N 47°53' E 035°07'0 0.0
2017-Nov-14 15:00N 47°53' E 035°07'0 0.0
2017-Nov-14 14:30N 47°53' E 035°07'0 0.0
2017-Nov-14 14:00N 47°53' E 035°07'0 0.0
2017-Nov-14 13:30N 47°53' E 035°07'0 0.0
2017-Nov-14 13:00N 47°53' E 035°07'0 0.0
2017-Nov-14 12:30N 47°53' E 035°07'0 0.0
2017-Nov-14 12:00N 47°53' E 035°07'0 0.0
2017-Nov-14 11:30N 47°53' E 035°07'0 0.0
2017-Nov-14 11:00N 47°53' E 035°07'0 0.0
2017-Nov-14 10:30N 47°53' E 035°07'0 0.0
2017-Nov-14 10:00N 47°53' E 035°07'0 0.0
2017-Nov-14 09:30N 47°53' E 035°07'0 0.0
2017-Nov-14 09:00N 47°53' E 035°07'0 0.0
2017-Nov-14 08:30N 47°53' E 035°07'0 0.0
2017-Nov-14 08:00N 47°53' E 035°07'0 0.0
2017-Nov-14 07:30N 47°53' E 035°07'0 0.0
2017-Nov-14 07:00N 47°53' E 035°07'0 0.0
2017-Nov-14 06:30N 47°53' E 035°07'0 0.0
2017-Nov-14 06:00N 47°53' E 035°07'0 0.0
2017-Nov-14 05:30N 47°53' E 035°07'0 0.0
2017-Nov-14 05:00N 47°53' E 035°07'0 0.0
2017-Nov-14 04:30N 47°53' E 035°07'0 0.0
2017-Nov-14 04:00N 47°53' E 035°07'0 0.0
2017-Nov-14 03:30N 47°53' E 035°07'0 0.0
2017-Nov-14 03:00N 47°53' E 035°07'0 0.0
2017-Nov-14 02:30N 47°53' E 035°07'0 0.0
2017-Nov-14 02:00N 47°53' E 035°07'0 0.0
2017-Nov-14 01:30N 47°53' E 035°07'0 0.0
2017-Nov-14 01:00N 47°53' E 035°07'0 0.0
2017-Nov-14 00:30N 47°53' E 035°07'0 0.0
2017-Nov-14 00:00N 47°53' E 035°07'0 0.0
2017-Nov-13 23:30N 47°53' E 035°07'0 0.0
2017-Nov-13 23:00N 47°53' E 035°07'0 0.0
2017-Nov-13 22:30N 47°53' E 035°07'0 0.0
2017-Nov-13 22:00N 47°53' E 035°07'  
2017-Nov-11 16:57N 46°32' E 032°07'3 6.7
2017-Nov-11 16:30N 46°32' E 032°03'3 6.8
2017-Nov-11 16:00N 46°33' E 031°58'3 6.7
2017-Nov-11 15:30N 46°34' E 031°53'4 6.8
2017-Nov-11 14:54N 46°36' E 031°48'3 7.0
2017-Nov-11 14:29N 46°36' E 031°43'153 6.8
2017-Nov-10 16:01N 44°36' E 029°28'0 6.8
2017-Nov-10 16:00N 44°36' E 029°28'4 6.7
2017-Nov-10 15:24N 44°32' E 029°25'3 7.1
2017-Nov-10 14:59N 44°29' E 029°23'3 7.0
2017-Nov-10 14:31N 44°27' E 029°21'4 7.2
2017-Nov-10 14:00N 44°24' E 029°18'3 6.9
2017-Nov-10 13:30N 44°21' E 029°16'4 7.1
2017-Nov-10 13:00N 44°17' E 029°14'4 7.1
2017-Nov-10 12:30N 44°14' E 029°11'4 7.6
2017-Nov-10 12:00N 44°11' E 029°08'4 8.1
2017-Nov-10 11:30N 44°08' E 029°06'4 7.7
2017-Nov-10 11:00N 44°04' E 029°03'4 7.7
2017-Nov-10 10:30N 44°01' E 029°00'4 7.8
2017-Nov-10 10:00N 43°57' E 028°58'4 7.7
2017-Nov-10 09:30N 43°53' E 028°58'4 7.4
2017-Nov-10 09:00N 43°50' E 028°58'4 7.4
2017-Nov-10 08:30N 43°46' E 028°58'3 6.7
2017-Nov-10 08:00N 43°43' E 028°56'3 6.9
2017-Nov-10 07:30N 43°40' E 028°53'  

Dump ship's entire track history